Terminal Aerodrome Forecast
Issued by NWS

Home | Current Version | Previous Version | Text Only | Print | Product List | Glossary On
Versions: 1 2 3 4 5 6 7 8 9 10 11 12 13
714
FTUS42 KMLB 201720
TAFSFB
TAF
KSFB 201720Z 2018/2118 05005KT P6SM SCT120 BKN250
     FM210000 07005KT P6SM BKN070
     FM210800 03003KT P6SM BKN100
     FM211600 09007KT P6SM SCT030=

USA.gov is the U.S. government's official web portal to all federal, state and local government web resources and services.